Time;durP1;ratioP1;P1;durP2;ratioP2;P2;SDS_P1;SDS_P2;PMS_P1;PMS_P2;Temp;Humidity;BMP_temperature;BMP_pressure;BME280_temperature;BME280_humidity;BME280_pressure;Samples;Min_cycle;Max_cycle;Signal;HPM_P1;HPM_P2
2023/10/22 00:01:18;;;;;;;0.70;0.70;;;;;;;25.11;34.29;99787.41;5036335;28;20194;-77
2023/10/22 00:03:45;;;;;;;1.25;1.23;;;;;;;25.23;34.09;99785.94;5036074;28;20197;-75
2023/10/22 00:06:12;;;;;;;1.20;1.17;;;;;;;25.15;33.81;99757.13;5071254;28;20191;-75
2023/10/22 00:08:40;;;;;;;0.90;0.90;;;;;;;25.32;33.80;99788.16;5071548;28;20202;-78
2023/10/22 00:11:06;;;;;;;1.58;1.48;;;;;;;25.10;33.77;99764.47;5071414;28;20207;-77
2023/10/22 00:13:33;;;;;;;0.70;0.70;;;;;;;25.35;34.00;99784.47;5052746;28;20590;-77
2023/10/22 00:16:00;;;;;;;1.05;1.05;;;;;;;25.34;33.88;99785.41;5071483;28;20685;-77
2023/10/22 00:18:27;;;;;;;0.80;0.80;;;;;;;25.30;33.34;99762.59;5071111;28;20643;-75
2023/10/22 00:20:54;;;;;;;0.70;0.70;;;;;;;25.45;33.54;99773.31;5070978;28;20200;-77
2023/10/22 00:23:20;;;;;;;1.90;1.13;;;;;;;25.50;33.58;99789.03;5071368;28;20230;-77
2023/10/22 00:25:49;;;;;;;1.10;1.10;;;;;;;25.50;33.26;99789.91;5071480;28;20210;-77
2023/10/22 00:28:15;;;;;;;1.45;1.45;;;;;;;25.48;33.30;99782.91;5071362;28;20222;-77
2023/10/22 00:30:42;;;;;;;1.38;1.00;;;;;;;25.49;33.46;99790.81;5072987;28;20604;-76
2023/10/22 00:33:09;;;;;;;0.90;0.90;;;;;;;25.60;32.92;99791.16;5074747;28;20591;-77
2023/10/22 00:35:36;;;;;;;0.95;0.88;;;;;;;25.55;33.11;99798.50;5074599;28;20572;-77
2023/10/22 00:38:02;;;;;;;0.90;0.90;;;;;;;25.61;33.06;99800.84;5074805;28;20203;-78
2023/10/22 00:40:29;;;;;;;1.80;1.70;;;;;;;25.55;33.32;99810.91;5074807;28;20203;-77
2023/10/22 00:42:57;;;;;;;0.85;0.85;;;;;;;25.64;33.17;99811.31;5074985;28;20223;-77
2023/10/22 00:45:24;;;;;;;1.10;1.10;;;;;;;25.43;33.63;99779.66;5074769;28;20207;-76
2023/10/22 00:47:51;;;;;;;1.23;1.13;;;;;;;25.52;33.19;99797.78;5074530;28;20264;-75
2023/10/22 00:50:18;;;;;;;1.08;1.08;;;;;;;25.36;33.84;99796.84;5075030;28;20194;-78
2023/10/22 00:52:44;;;;;;;0.80;0.80;;;;;;;25.30;33.81;99786.50;5074487;28;20789;-78
2023/10/22 00:55:13;;;;;;;1.45;1.35;;;;;;;25.40;34.03;99809.84;5074437;28;20713;-77
2023/10/22 00:57:41;;;;;;;1.55;1.35;;;;;;;25.38;33.64;99813.53;5040037;28;20737;-78
2023/10/22 01:00:10;;;;;;;0.70;0.70;;;;;;;25.28;33.44;99793.69;5074399;28;20202;-77
2023/10/22 01:02:37;;;;;;;0.95;0.93;;;;;;;25.51;33.38;99834.09;5074450;28;20231;-78
2023/10/22 01:05:05;;;;;;;3.83;1.40;;;;;;;24.84;37.94;99804.66;5074514;28;20206;-77
2023/10/22 01:07:33;;;;;;;1.55;1.45;;;;;;;24.87;38.80;99833.69;5074253;28;20202;-77
2023/10/22 01:10:00;;;;;;;1.48;1.38;;;;;;;24.72;38.88;99841.50;5074670;28;20197;-77
2023/10/22 01:12:34;;;;;;;3.70;1.80;;;;;;;24.51;39.50;99849.50;5074535;28;20205;-77
2023/10/22 01:15:00;;;;;;;1.40;1.40;;;;;;;24.33;39.01;99845.03;5074545;28;20566;-78
2023/10/22 01:17:29;;;;;;;0.82;0.82;;;;;;;24.24;39.00;99841.94;5056021;28;20256;-78
2023/10/22 01:19:55;;;;;;;0.80;0.80;;;;;;;24.19;38.22;99835.03;5073884;28;20194;-76
2023/10/22 01:22:23;;;;;;;1.00;1.00;;;;;;;24.17;37.98;99828.09;5073814;28;20272;-77
2023/10/22 01:24:51;;;;;;;1.02;1.02;;;;;;;24.10;37.42;99806.28;5073857;28;20201;-77
2023/10/22 01:27:17;;;;;;;0.95;0.95;;;;;;;24.28;37.23;99817.03;5073600;28;20195;-77
2023/10/22 01:29:44;;;;;;;0.93;0.93;;;;;;;24.20;36.40;99774.97;5073395;28;20259;-78
2023/10/22 01:32:12;;;;;;;0.65;0.65;;;;;;;24.61;35.27;99820.78;5074429;28;20207;-77
2023/10/22 01:34:38;;;;;;;1.65;1.55;;;;;;;24.98;34.37;99810.16;5074086;28;20286;-78
2023/10/22 01:37:05;;;;;;;0.90;0.90;;;;;;;25.35;33.65;99858.81;5073751;28;20198;-76
2023/10/22 01:39:32;;;;;;;0.80;0.80;;;;;;;25.17;35.26;99866.75;5073389;28;20697;-76
2023/10/22 01:42:00;;;;;;;15.25;1.20;;;;;;;24.78;36.77;99847.38;5072890;28;20662;-77
2023/10/22 01:44:27;;;;;;;0.80;0.80;;;;;;;24.37;37.03;99862.50;5073772;28;20194;-78
2023/10/22 01:46:53;;;;;;;0.80;0.80;;;;;;;23.99;37.81;99845.63;5073772;28;20202;-78
2023/10/22 01:49:20;;;;;;;0.70;0.70;;;;;;;23.88;38.73;99870.84;5073542;28;20209;-76
2023/10/22 01:51:48;;;;;;;1.08;1.08;;;;;;;23.76;38.68;99881.97;5038455;28;20252;-77
2023/10/22 01:54:15;;;;;;;0.90;0.90;;;;;;;23.60;38.84;99869.38;5073209;28;20207;-77
2023/10/22 01:56:41;;;;;;;0.90;0.90;;;;;;;23.68;37.90;99869.94;5073041;28;20203;-76
2023/10/22 01:59:10;;;;;;;0.90;0.90;;;;;;;24.18;36.23;99862.50;5073523;28;20206;-77
2023/10/22 02:01:36;;;;;;;1.05;1.05;;;;;;;24.45;35.78;99860.38;5073036;28;20198;-77
2023/10/22 02:04:03;;;;;;;0.80;0.80;;;;;;;24.85;35.13;99863.88;5072748;28;20244;-76
2023/10/22 02:06:30;;;;;;;1.13;1.13;;;;;;;25.17;34.37;99864.09;5073137;28;20590;-78
2023/10/22 02:08:57;;;;;;;0.90;0.90;;;;;;;25.38;34.31;99877.25;5073168;28;20260;-77
2023/10/22 02:11:23;;;;;;;1.48;1.38;;;;;;;25.44;34.03;99858.34;5072879;28;20202;-78
2023/10/22 02:13:50;;;;;;;1.95;1.85;;;;;;;25.71;33.75;99896.88;5072667;28;20604;-78
2023/10/22 02:16:18;;;;;;;0.80;0.80;;;;;;;25.84;33.27;99900.63;5072728;28;20581;-77
2023/10/22 02:18:45;;;;;;;1.35;1.35;;;;;;;25.89;33.26;99903.91;5037894;28;20203;-78
2023/10/22 02:21:12;;;;;;;0.80;0.80;;;;;;;25.94;33.50;99895.69;5072653;28;20198;-77
2023/10/22 02:23:39;;;;;;;1.00;1.00;;;;;;;25.87;33.38;99895.16;5072454;28;20254;-77
2023/10/22 02:26:07;;;;;;;0.73;0.73;;;;;;;25.86;33.33;99869.53;5072840;28;20199;-78
2023/10/22 02:28:34;;;;;;;1.38;1.38;;;;;;;25.79;33.25;99853.97;5037673;28;20202;-77
2023/10/22 02:31:00;;;;;;;1.08;1.08;;;;;;;26.05;33.18;99878.25;5072042;28;20238;-77
2023/10/22 02:33:28;;;;;;;1.00;1.00;;;;;;;26.25;33.29;99884.38;5072458;28;20195;-77
2023/10/22 02:35:55;;;;;;;24.85;1.27;;;;;;;26.35;33.12;99875.84;5072258;28;20199;-79
2023/10/22 02:38:22;;;;;;;1.10;1.10;;;;;;;26.33;33.63;99875.06;5037632;28;20198;-77
2023/10/22 02:40:49;;;;;;;11.50;1.42;;;;;;;26.42;33.27;99884.34;5072538;28;20203;-79
2023/10/22 02:43:16;;;;;;;1.65;1.55;;;;;;;26.42;33.29;99879.91;5072252;28;20258;-77
2023/10/22 02:45:49;;;;;;;1.23;1.23;;;;;;;26.51;33.30;99899.81;5072301;28;20198;-77
2023/10/22 02:48:16;;;;;;;1.00;1.00;;;;;;;26.45;33.75;99910.78;5072250;28;20682;-77
2023/10/22 02:50:44;;;;;;;5.68;1.98;;;;;;;26.38;33.78;99914.69;5036917;28;20727;-76
2023/10/22 02:53:12;;;;;;;1.63;1.52;;;;;;;26.35;33.68;99929.03;5071110;28;20209;-77
2023/10/22 02:55:39;;;;;;;1.08;1.08;;;;;;;26.30;34.12;99908.91;5037210;28;20290;-77
2023/10/22 02:58:05;;;;;;;12.98;1.20;;;;;;;26.28;34.20;99911.66;5072676;28;20199;-76
2023/10/22 03:00:34;;;;;;;1.10;1.00;;;;;;;26.25;34.29;99908.31;5053299;28;20268;-75
2023/10/22 03:03:01;;;;;;;1.00;1.00;;;;;;;26.11;34.21;99871.78;5071882;28;20230;-77
2023/10/22 03:05:28;;;;;;;2.00;1.90;;;;;;;26.30;34.03;99888.50;5073523;28;20198;-77
2023/10/22 03:07:56;;;;;;;0.80;0.80;;;;;;;26.32;34.51;99885.78;5072833;28;20560;-77
2023/10/22 03:10:22;;;;;;;1.40;1.40;;;;;;;26.30;34.27;99896.47;5072988;28;20209;-77
2023/10/22 03:12:49;;;;;;;1.55;1.55;;;;;;;26.08;34.21;99869.25;5072906;28;20205;-76
2023/10/22 03:15:16;;;;;;;1.08;1.08;;;;;;;26.27;34.67;99922.38;5073320;28;20199;-77
2023/10/22 03:17:43;;;;;;;0.70;0.70;;;;;;;26.20;34.70;99913.00;5072695;28;20202;-78
2023/10/22 03:20:11;;;;;;;1.33;1.33;;;;;;;26.09;34.79;99926.81;5072855;28;20190;-78
2023/10/22 03:22:38;;;;;;;1.10;1.10;;;;;;;25.78;35.29;99900.06;5072099;28;20792;-78
2023/10/22 03:25:07;;;;;;;0.90;0.90;;;;;;;25.98;35.08;99922.03;5072018;28;20709;-78
2023/10/22 03:27:35;;;;;;;1.02;1.00;;;;;;;25.90;35.78;99908.25;5053795;28;20290;-77
2023/10/22 03:30:03;;;;;;;0.90;0.90;;;;;;;25.86;35.35;99901.41;5053262;28;20633;-78
2023/10/22 03:32:30;;;;;;;0.80;0.80;;;;;;;25.80;35.95;99904.34;5071922;28;20198;-78
2023/10/22 03:34:57;;;;;;;0.80;0.80;;;;;;;25.61;36.42;99908.88;5072091;28;20233;-78
2023/10/22 03:37:24;;;;;;;2.30;1.65;;;;;;;25.54;36.51;99900.34;5071829;28;20230;-78
2023/10/22 03:39:51;;;;;;;2.30;2.15;;;;;;;25.43;36.52;99884.06;5072091;28;20202;-77
2023/10/22 03:42:19;;;;;;;1.20;1.15;;;;;;;25.41;36.71;99887.72;5071777;28;20718;-78
2023/10/22 03:44:46;;;;;;;1.00;1.00;;;;;;;25.06;37.02;99858.44;5071647;28;20222;-78
2023/10/22 03:47:12;;;;;;;6.10;1.77;;;;;;;25.02;36.87;99848.88;5071648;28;20606;-78
2023/10/22 03:49:39;;;;;;;1.27;0.98;;;;;;;25.17;37.25;99877.34;5071509;28;20670;-78
2023/10/22 03:52:06;;;;;;;1.65;1.55;;;;;;;25.16;37.22;99870.31;5036432;28;20198;-78
2023/10/22 03:54:33;;;;;;;0.80;0.80;;;;;;;25.08;37.39;99872.47;5071320;28;20222;-77
2023/10/22 03:57:00;;;;;;;0.80;0.80;;;;;;;25.04;37.62;99865.59;5071600;28;20226;-78
2023/10/22 03:59:28;;;;;;;1.13;1.13;;;;;;;24.88;37.54;99822.16;5071155;28;20202;-77
2023/10/22 04:01:55;;;;;;;1.25;1.17;;;;;;;25.05;37.66;99859.34;5071499;28;20280;-77
2023/10/22 04:04:22;;;;;;;1.15;1.15;;;;;;;25.12;37.29;99852.81;5072332;28;20230;-76
2023/10/22 04:06:49;;;;;;;0.90;0.90;;;;;;;25.10;37.68;99840.56;5075304;28;20206;-77
2023/10/22 04:09:16;;;;;;;0.98;0.98;;;;;;;25.12;37.17;99855.47;5075310;28;20201;-77
2023/10/22 04:11:42;;;;;;;1.25;0.80;;;;;;;25.18;37.59;99868.44;5075284;28;20210;-77
2023/10/22 04:14:09;;;;;;;1.33;1.33;;;;;;;25.21;37.05;99883.38;5075132;28;20203;-77
2023/10/22 04:16:37;;;;;;;0.98;0.98;;;;;;;25.35;36.85;99895.97;5075212;28;20202;-77
2023/10/22 04:19:04;;;;;;;0.80;0.80;;;;;;;25.42;36.64;99892.09;5074837;28;20634;-77
2023/10/22 04:21:31;;;;;;;0.70;0.70;;;;;;;25.44;38.47;99912.31;5074819;28;20199;-77
2023/10/22 04:23:57;;;;;;;0.80;0.80;;;;;;;25.04;40.11;99891.28;5074809;28;20234;-78
2023/10/22 04:26:24;;;;;;;2.00;1.90;;;;;;;25.05;40.46;99920.38;5074836;28;20205;-78
2023/10/22 04:28:52;;;;;;;1.30;1.30;;;;;;;24.79;41.23;99912.75;5075046;28;20221;-77
2023/10/22 04:31:19;;;;;;;0.98;0.98;;;;;;;24.39;42.16;99900.44;5074849;28;20241;-78
2023/10/22 04:33:48;;;;;;;2.42;1.30;;;;;;;24.43;42.25;99930.31;5039959;28;20207;-78
2023/10/22 04:36:16;;;;;;;0.80;0.80;;;;;;;24.30;42.68;99935.28;5074814;28;20272;-77
2023/10/22 04:38:43;;;;;;;0.90;0.90;;;;;;;24.20;41.81;99933.94;5074597;28;20695;-77
2023/10/22 04:41:11;;;;;;;1.95;1.38;;;;;;;23.88;42.75;99935.28;5074425;28;20214;-77
2023/10/22 04:43:37;;;;;;;0.98;0.98;;;;;;;23.59;43.03;99936.47;5074649;28;20222;-77
2023/10/22 04:46:04;;;;;;;0.82;0.82;;;;;;;23.54;43.46;99937.59;5074789;28;20203;-78
2023/10/22 04:48:32;;;;;;;1.02;1.02;;;;;;;23.45;43.77;99953.81;5074482;28;20213;-78
2023/10/22 04:51:05;;;;;;;1.15;1.15;;;;;;;23.44;44.26;99946.78;5074500;28;20229;-78
2023/10/22 04:53:32;;;;;;;0.98;0.98;;;;;;;23.44;44.04;99949.44;5074284;28;20206;-77
2023/10/22 04:56:00;;;;;;;1.60;1.50;;;;;;;23.46;44.01;99924.66;5074256;28;20201;-77
2023/10/22 04:58:27;;;;;;;1.00;1.00;;;;;;;23.54;43.48;99896.06;5074540;28;20199;-78
2023/10/22 05:00:54;;;;;;;1.05;1.05;;;;;;;23.61;42.84;99891.41;5074439;28;20264;-77
2023/10/22 05:03:21;;;;;;;1.10;1.10;;;;;;;23.66;43.48;99889.44;5074290;28;20226;-77
2023/10/22 05:05:48;;;;;;;2.65;1.98;;;;;;;23.69;43.07;99897.22;5074135;28;20198;-77
2023/10/22 05:08:16;;;;;;;1.30;1.20;;;;;;;23.75;43.73;99907.59;5073884;28;20271;-78
2023/10/22 05:10:43;;;;;;;1.17;1.17;;;;;;;23.59;44.14;99906.50;5074483;28;20277;-77
2023/10/22 05:13:10;;;;;;;1.50;1.42;;;;;;;23.53;44.57;99912.91;5074620;28;20202;-81
2023/10/22 05:15:37;;;;;;;1.45;1.45;;;;;;;23.51;44.27;99921.81;5073553;28;20690;-80
2023/10/22 05:18:05;;;;;;;1.75;1.65;;;;;;;23.48;44.72;99914.00;5074572;28;20671;-80
2023/10/22 05:20:32;;;;;;;1.98;1.88;;;;;;;23.34;44.41;99897.78;5074244;28;20639;-78
2023/10/22 05:22:59;;;;;;;2.00;1.90;;;;;;;23.52;44.78;99929.72;5074168;28;20199;-79
2023/10/22 05:25:27;;;;;;;1.65;1.55;;;;;;;23.50;44.45;99931.56;5074418;28;20230;-79
2023/10/22 05:27:54;;;;;;;1.00;1.00;;;;;;;23.51;44.52;99941.22;5038730;28;20210;-78
2023/10/22 05:30:21;;;;;;;1.48;1.48;;;;;;;23.43;45.07;99947.75;5073719;28;20234;-76
2023/10/22 05:32:48;;;;;;;1.17;1.17;;;;;;;23.36;45.29;99939.16;5073780;28;20206;-75
2023/10/22 05:35:14;;;;;;;1.98;1.88;;;;;;;23.23;45.84;99945.84;5073444;28;20202;-75
2023/10/22 05:37:43;;;;;;;1.45;1.08;;;;;;;23.22;45.43;99947.59;5055100;28;20206;-74
2023/10/22 05:40:13;;;;;;;2.35;1.50;;;;;;;23.19;45.02;99931.84;5055184;28;20199;-72
2023/10/22 05:42:41;;;;;;;5.20;1.90;;;;;;;23.39;44.72;99927.59;5025480;28;20647;-73
2023/10/22 05:45:09;;;;;;;0.90;0.90;;;;;;;23.53;45.09;99922.63;5070345;28;20256;-73
2023/10/22 05:47:36;;;;;;;1.60;1.50;;;;;;;23.60;43.42;99910.88;5021104;28;20199;-73
2023/10/22 05:50:03;;;;;;;1.10;1.10;;;;;;;23.85;44.03;99932.75;5065413;28;20604;-73
2023/10/22 05:52:30;;;;;;;1.38;1.27;;;;;;;23.96;42.97;99938.47;5073101;28;20325;-73
2023/10/22 05:54:57;;;;;;;1.40;1.40;;;;;;;23.98;42.36;99912.78;5072666;28;20202;-73
2023/10/22 05:57:28;;;;;;;0.80;0.80;;;;;;;24.16;42.56;99919.97;5072852;28;20610;-73
2023/10/22 05:59:57;;;;;;;0.95;0.95;;;;;;;24.39;42.17;99934.03;5073477;28;20199;-79
2023/10/22 06:02:24;;;;;;;1.23;1.23;;;;;;;24.47;42.13;99935.38;5074081;28;20201;-80
2023/10/22 06:04:51;;;;;;;1.20;1.20;;;;;;;24.62;41.52;99936.50;5074121;28;20222;-79
2023/10/22 06:07:18;;;;;;;1.15;1.08;;;;;;;24.62;42.95;99944.44;5073720;28;20199;-80
2023/10/22 06:09:44;;;;;;;7.03;1.33;;;;;;;24.63;42.39;99931.13;5074000;28;20199;-80
2023/10/22 06:12:11;;;;;;;4.32;1.58;;;;;;;24.65;42.92;99925.75;5074218;28;20206;-79
2023/10/22 06:14:38;;;;;;;0.90;0.90;;;;;;;24.78;41.69;99912.81;5039024;28;20277;-80
2023/10/22 06:17:06;;;;;;;4.50;2.08;;;;;;;24.92;40.89;99908.63;5073476;28;20601;-79
2023/10/22 06:19:33;;;;;;;1.80;1.70;;;;;;;24.98;41.17;99887.09;5074029;28;20203;-81
2023/10/22 06:21:59;;;;;;;1.33;1.33;;;;;;;25.15;40.54;99887.16;5073763;28;20700;-78
2023/10/22 06:24:26;;;;;;;1.33;1.33;;;;;;;25.41;41.12;99912.47;5039081;28;20230;-80
2023/10/22 06:26:53;;;;;;;0.95;0.95;;;;;;;25.64;40.19;99925.53;5039989;28;20690;-81
2023/10/22 06:29:20;;;;;;;0.90;0.90;;;;;;;25.73;39.44;99931.31;5074655;28;20202;-80
2023/10/22 06:31:47;;;;;;;1.13;1.13;;;;;;;25.63;41.37;99954.81;5075038;28;20227;-80
2023/10/22 06:34:15;;;;;;;0.80;0.80;;;;;;;25.54;40.84;99945.47;5075622;28;20205;-79
2023/10/22 06:36:42;;;;;;;0.80;0.80;;;;;;;25.63;40.53;99945.03;5075746;28;20203;-80
2023/10/22 06:39:08;;;;;;;1.00;1.00;;;;;;;25.59;41.11;99966.50;5074895;28;20199;-80
2023/10/22 06:41:35;;;;;;;1.00;1.00;;;;;;;25.39;43.16;99969.22;5074668;28;20203;-80
2023/10/22 06:44:03;;;;;;;0.80;0.80;;;;;;;25.45;43.41;99960.97;5076689;28;20226;-79
2023/10/22 06:46:29;;;;;;;1.10;1.10;;;;;;;25.51;41.32;99950.06;5074386;28;20282;-80
2023/10/22 06:48:56;;;;;;;1.58;1.52;;;;;;;25.60;42.46;99941.69;5076952;28;20210;-81
2023/10/22 06:51:24;;;;;;;13.25;1.23;;;;;;;25.57;42.55;99925.91;5080166;28;20305;-79
2023/10/22 06:53:51;;;;;;;2.15;1.77;;;;;;;25.64;42.41;99964.50;5081993;28;20203;-81
2023/10/22 06:56:18;;;;;;;2.15;1.40;;;;;;;25.75;41.54;99943.59;5081302;28;20207;-80
2023/10/22 06:58:45;;;;;;;2.60;2.15;;;;;;;25.67;44.18;99923.66;5075257;28;20191;-79
2023/10/22 07:01:14;;;;;;;1.33;1.33;;;;;;;25.53;44.54;99954.41;5059702;28;20206;-78
2023/10/22 07:03:43;;;;;;;1.80;1.80;;;;;;;25.49;44.19;99967.84;5072279;28;20200;-79
2023/10/22 07:06:10;;;;;;;1.23;1.23;;;;;;;25.38;42.85;99941.81;5079474;28;20751;-80
2023/10/22 07:08:39;;;;;;;1.17;1.17;;;;;;;25.59;42.19;99947.91;5052400;28;20286;-77
2023/10/22 07:11:05;;;;;;;1.58;1.58;;;;;;;25.31;43.24;99927.13;5067018;28;20206;-78
2023/10/22 07:13:32;;;;;;;6.22;1.98;;;;;;;25.41;44.25;99960.25;5057325;28;20585;-78
2023/10/22 07:15:59;;;;;;;1.38;1.27;;;;;;;25.35;44.51;99965.00;5061914;28;20707;-78
2023/10/22 07:18:26;;;;;;;1.33;1.20;;;;;;;25.40;44.52;99960.34;5068267;28;20656;-80
2023/10/22 07:20:53;;;;;;;0.80;0.80;;;;;;;25.41;43.79;99970.88;5063818;28;20199;-82
2023/10/22 07:23:19;;;;;;;1.13;1.13;;;;;;;25.18;43.40;99924.16;5066518;28;20199;-79
2023/10/22 07:25:48;;;;;;;1.27;1.27;;;;;;;25.46;43.78;99974.19;5059468;28;20229;-76
2023/10/22 07:28:16;;;;;;;1.00;1.00;;;;;;;25.44;44.88;99975.16;5072898;28;20261;-79
2023/10/22 07:30:47;;;;;;;1.70;1.17;;;;;;;25.45;43.26;99975.09;5072081;28;20254;-75
2023/10/22 07:33:14;;;;;;;6.90;1.48;;;;;;;25.35;44.13;99981.78;5036475;28;20205;-76
2023/10/22 07:35:40;;;;;;;1.13;1.10;;;;;;;25.35;44.12;99987.09;5032354;28;20223;-75
2023/10/22 07:38:07;;;;;;;1.20;1.20;;;;;;;25.41;43.29;99989.47;5061213;28;20202;-77
2023/10/22 07:40:37;;;;;;;2.10;2.05;;;;;;;25.33;43.94;99977.50;5070842;28;20218;-76
2023/10/22 07:43:06;;;;;;;1.45;1.35;;;;;;;25.38;45.19;99984.28;5071310;28;20231;-76
2023/10/22 07:45:33;;;;;;;1.48;1.38;;;;;;;25.33;45.61;99953.59;5057147;28;20223;-78
2023/10/22 07:47:59;;;;;;;1.65;1.55;;;;;;;25.18;44.69;99958.66;5071444;28;20194;-75
2023/10/22 07:50:26;;;;;;;1.13;1.13;;;;;;;25.26;45.09;99971.59;5071637;28;20206;-78
2023/10/22 07:52:53;;;;;;;0.77;0.77;;;;;;;25.49;44.36;99973.16;5072125;28;20206;-80
2023/10/22 07:55:20;;;;;;;1.80;1.70;;;;;;;25.51;43.31;99948.28;5072819;28;20216;-81
2023/10/22 07:57:47;;;;;;;2.08;1.27;;;;;;;25.79;43.29;99977.00;5072056;28;20205;-80
2023/10/22 08:00:15;;;;;;;1.33;1.23;;;;;;;25.68;43.17;99949.28;5072542;28;20203;-80
2023/10/22 08:02:42;;;;;;;9.00;1.90;;;;;;;25.90;43.63;99976.53;5036195;28;20281;-80
2023/10/22 08:05:10;;;;;;;2.50;2.35;;;;;;;25.75;43.75;99948.91;5058570;28;20234;-81
2023/10/22 08:07:37;;;;;;;3.90;3.15;;;;;;;26.02;43.46;99978.53;5071479;28;20203;-79
2023/10/22 08:10:04;;;;;;;3.40;3.17;;;;;;;26.08;43.23;99978.22;5071350;28;20554;-80
2023/10/22 08:12:31;;;;;;;2.55;2.35;;;;;;;26.19;42.99;99977.72;5071818;28;20206;-82
2023/10/22 08:14:57;;;;;;;5.63;2.13;;;;;;;26.34;41.87;99968.97;5067558;28;20199;-80
2023/10/22 08:17:25;;;;;;;1.52;1.50;;;;;;;26.23;42.27;99966.88;5051388;28;20211;-80
2023/10/22 08:19:52;;;;;;;1.02;1.02;;;;;;;26.08;43.35;99979.09;5065529;28;20206;-80
2023/10/22 08:22:20;;;;;;;3.58;2.40;;;;;;;26.12;43.79;99978.00;5050311;28;20282;-80
2023/10/22 08:24:48;;;;;;;2.10;2.00;;;;;;;26.15;43.36;99985.81;5031444;28;20253;-80
2023/10/22 08:27:15;;;;;;;2.95;1.33;;;;;;;26.27;43.63;99979.06;5071260;28;20241;-80
2023/10/22 08:29:42;;;;;;;1.63;1.52;;;;;;;26.38;43.05;99986.50;5057927;28;20210;-79
2023/10/22 08:32:08;;;;;;;4.25;1.17;;;;;;;26.30;41.71;99947.00;5071045;28;20195;-78
2023/10/22 08:34:36;;;;;;;3.63;2.20;;;;;;;26.63;42.58;99976.31;5071718;28;20210;-79
2023/10/22 08:37:04;;;;;;;4.80;1.65;;;;;;;26.82;41.89;99965.56;5032901;28;20675;-80
2023/10/22 08:39:31;;;;;;;1.70;1.55;;;;;;;26.90;41.32;99969.53;5065735;28;20239;-80
2023/10/22 08:42:02;;;;;;;2.47;2.35;;;;;;;26.89;41.38;99966.97;5067676;28;20238;-80
2023/10/22 08:44:29;;;;;;;1.13;1.13;;;;;;;26.65;41.75;99939.81;5071310;28;20230;-80
2023/10/22 08:46:56;;;;;;;1.25;1.25;;;;;;;26.83;41.63;99946.88;5055397;28;20203;-79
2023/10/22 08:49:24;;;;;;;3.92;0.88;;;;;;;26.45;42.34;99929.38;5058809;28;20203;-81
2023/10/22 08:51:52;;;;;;;0.98;0.98;;;;;;;26.50;42.91;99938.00;5072988;28;20210;-79
2023/10/22 08:54:22;;;;;;;2.15;1.45;;;;;;;26.40;43.04;99936.72;5074661;28;20198;-79
2023/10/22 08:56:49;;;;;;;0.90;0.90;;;;;;;26.39;42.85;99927.06;5074407;28;20199;-80
2023/10/22 08:59:16;;;;;;;2.72;2.05;;;;;;;26.31;43.03;99911.50;5059870;28;20569;-80
2023/10/22 09:01:42;;;;;;;2.50;2.17;;;;;;;26.52;43.24;99930.78;5063052;28;20698;-80
2023/10/22 09:04:09;;;;;;;0.85;0.85;;;;;;;26.35;43.02;99906.88;5067447;28;20669;-80
2023/10/22 09:06:36;;;;;;;1.00;1.00;;;;;;;26.70;42.96;99939.59;5074711;28;20591;-84
2023/10/22 09:09:04;;;;;;;1.42;1.33;;;;;;;26.83;42.99;99941.53;5074079;28;20210;-84
2023/10/22 09:11:31;;;;;;;16.65;1.17;;;;;;;26.83;42.49;99936.22;5074671;28;20667;-83
2023/10/22 09:13:58;;;;;;;1.45;1.42;;;;;;;27.02;42.31;99936.94;5074564;28;20229;-83
2023/10/22 09:16:29;;;;;;;1.65;1.58;;;;;;;27.24;41.82;99914.47;5075004;28;20222;-83
2023/10/22 09:18:57;;;;;;;1.92;1.88;;;;;;;27.58;41.43;99924.94;5074595;28;20661;-82
2023/10/22 09:21:25;;;;;;;9.93;2.95;;;;;;;27.71;41.49;99928.66;5059016;28;20196;-77
2023/10/22 09:24:05;;;;;;;1.75;1.45;;;;;;;27.86;40.21;99930.41;5061841;28;20206;-79
2023/10/22 09:26:41;;;;;;;1.48;1.30;;;;;;;27.82;40.35;99923.56;5072841;28;20222;-77
2023/10/22 09:29:08;;;;;;;1.88;1.73;;;;;;;27.90;40.42;99920.41;5063351;28;20289;-78
2023/10/22 09:31:35;;;;;;;2.15;2.05;;;;;;;28.21;40.18;99924.84;5024692;28;20314;-78
2023/10/22 09:34:02;;;;;;;2.47;2.38;;;;;;;28.42;39.95;99904.88;5074042;28;20758;-78
2023/10/22 09:36:29;;;;;;;2.25;2.15;;;;;;;28.61;38.95;99921.44;5073907;28;20295;-78
2023/10/22 09:38:57;;;;;;;4.70;1.48;;;;;;;28.62;39.02;99912.50;5073798;28;20195;-78
2023/10/22 09:41:29;;;;;;;8.20;3.17;;;;;;;28.52;38.75;99900.69;5074364;28;20595;-78
2023/10/22 09:43:57;;;;;;;1.17;1.17;;;;;;;28.59;38.66;99904.69;5060045;28;20202;-78
2023/10/22 09:46:28;;;;;;;3.28;1.90;;;;;;;28.37;39.41;99897.13;5062847;28;20254;-78
2023/10/22 09:48:58;;;;;;;4.43;3.28;;;;;;;27.88;39.79;99864.56;5053736;28;20203;-78
2023/10/22 09:51:31;;;;;;;2.65;2.50;;;;;;;28.46;39.68;99885.91;5053754;28;20203;-78
2023/10/22 09:54:02;;;;;;;3.00;2.83;;;;;;;28.66;39.18;99892.69;5054624;28;20264;-79
2023/10/22 09:56:33;;;;;;;2.55;2.45;;;;;;;29.03;38.85;99891.25;5053945;28;20214;-77
2023/10/22 09:59:04;;;;;;;3.22;2.90;;;;;;;29.08;38.07;99881.13;5053852;28;20203;-78
2023/10/22 10:01:32;;;;;;;7.20;2.40;;;;;;;29.46;37.56;99892.91;5053660;28;20223;-78
2023/10/22 10:03:59;;;;;;;2.67;1.85;;;;;;;29.66;36.71;99867.50;5053667;28;20239;-79
2023/10/22 10:06:26;;;;;;;6.28;3.72;;;;;;;29.72;36.70;99890.28;5053632;28;20258;-79
2023/10/22 10:08:54;;;;;;;0.90;0.90;;;;;;;29.84;35.87;99885.03;5054229;28;20596;-80
2023/10/22 10:11:22;;;;;;;7.32;1.92;;;;;;;30.25;36.65;99881.34;5053892;28;20194;-80
2023/10/22 10:13:50;;;;;;;2.45;2.30;;;;;;;29.90;36.83;99879.25;5053417;28;20199;-80
2023/10/22 10:16:17;;;;;;;2.13;1.92;;;;;;;29.98;37.65;99871.56;5053532;28;20206;-80
2023/10/22 10:19:08;;;;;;;2.15;1.67;;;;;;;29.98;37.42;99868.91;5034820;28;20207;-80
2023/10/22 10:21:47;;;;;;;4.68;1.67;;;;;;;29.98;37.29;99863.56;5053378;28;20674;-80
2023/10/22 10:24:22;;;;;;;2.63;1.77;;;;;;;29.94;36.88;99874.53;5053635;28;20205;-80
2023/10/22 10:26:52;;;;;;;2.55;2.35;;;;;;;29.67;37.21;99847.84;5053384;28;20313;-79
2023/10/22 10:29:22;;;;;;;1.42;1.42;;;;;;;29.79;37.37;99873.72;5054076;28;20749;-80
2023/10/22 10:31:51;;;;;;;1.45;1.35;;;;;;;29.82;37.09;99873.53;5053162;28;20231;-80
2023/10/22 10:34:33;;;;;;;5.85;2.75;;;;;;;29.94;36.61;99856.69;5053673;28;20202;-79
2023/10/22 10:37:10;;;;;;;6.70;2.65;;;;;;;30.36;36.64;99873.41;5054021;28;20203;-79
2023/10/22 10:39:40;;;;;;;1.10;1.10;;;;;;;30.33;35.51;99853.06;5055951;28;20694;-81
2023/10/22 10:42:07;;;;;;;2.25;1.13;;;;;;;30.33;35.07;99870.94;5062192;28;20195;-79
2023/10/22 10:45:08;;;;;;;2.10;1.63;;;;;;;30.39;35.27;99868.69;5048762;28;20209;-80
2023/10/22 10:47:36;;;;;;;1.08;1.08;;;;;;;30.45;35.39;99862.09;5056170;28;20701;-79
2023/10/22 10:50:05;;;;;;;0.93;0.93;;;;;;;30.70;35.05;99867.44;5056961;28;20575;-78
2023/10/22 10:52:32;;;;;;;1.10;1.10;;;;;;;30.65;35.06;99860.69;5052963;28;20195;-77
2023/10/22 10:55:01;;;;;;;1.90;1.85;;;;;;;30.65;35.11;99858.84;5052818;28;20203;-77
2023/10/22 10:57:34;;;;;;;1.10;1.10;;;;;;;30.62;35.68;99835.00;5052323;28;20206;-78
2023/10/22 11:00:04;;;;;;;1.23;1.23;;;;;;;30.66;35.10;99857.03;5052047;28;20199;-77
2023/10/22 11:02:39;;;;;;;1.25;1.15;;;;;;;30.91;34.33;99860.53;5033923;28;20203;-77
2023/10/22 11:05:07;;;;;;;2.38;2.05;;;;;;;30.96;34.34;99858.34;5051766;28;20761;-77
2023/10/22 11:07:34;;;;;;;1.27;1.27;;;;;;;31.12;34.81;99859.97;5052355;28;20199;-77
2023/10/22 11:10:08;;;;;;;1.55;1.55;;;;;;;30.75;34.39;99801.00;5052166;28;20206;-77
2023/10/22 11:12:34;;;;;;;1.17;1.17;;;;;;;30.81;35.35;99864.84;5051982;28;20733;-78
2023/10/22 11:15:02;;;;;;;2.05;1.63;;;;;;;30.69;36.09;99860.34;5051467;28;20207;-77
2023/10/22 11:17:29;;;;;;;1.88;1.67;;;;;;;30.20;38.16;99867.41;5052634;28;20195;-78
2023/10/22 11:19:57;;;;;;;1.88;1.83;;;;;;;29.45;37.99;99781.63;5052515;28;20195;-78
2023/10/22 11:22:24;;;;;;;2.60;1.55;;;;;;;29.61;38.83;99853.56;5052330;28;20203;-78
2023/10/22 11:24:52;;;;;;;2.22;2.03;;;;;;;29.64;39.35;99853.41;5051862;28;20199;-77
2023/10/22 11:27:20;;;;;;;1.20;1.20;;;;;;;29.64;38.48;99853.41;5051760;28;20203;-78
2023/10/22 11:29:48;;;;;;;4.38;2.90;;;;;;;29.53;38.62;99856.78;5033214;28;20590;-78
2023/10/22 11:32:17;;;;;;;1.13;1.13;;;;;;;29.60;38.83;99859.91;5051792;28;20629;-77
2023/10/22 11:34:52;;;;;;;4.57;1.73;;;;;;;29.42;39.73;99859.31;5051641;28;20195;-77
2023/10/22 11:37:20;;;;;;;13.75;1.92;;;;;;;29.53;40.36;99866.63;5051489;28;20207;-77